Huvudsida
METAR-TAF:

METAR-TAF

Flygplatser :

Istanbul Atatürk, Turkiet

Atatürk International Airport

latitud: 40-58N, longitud: 028-49E, höjd: 48 m

Aktuellt väderrapport

Denna rapport gjordes för 33 minuter sedan, klockan 04:20 UTC
Vind 11 kt från nord/nordost
Temperatur 9°C
Fuktighet 81%
Tryck 1014 hPa
Sikt 10 km eller mer
Spridda moln på en höjd av 800 ft
Brutna moln på en höjd av 2000 ft

METAR: LTBA 230420Z 03011KT 9999 SCT008 BKN020 09/06 Q1014 NOSIG RMK RWY17L 04010KT 010V070 RWY05 04011KT RWY23 05009KT 020V080

Tid: 07:53 (04:53 UTC)

Väderprognos

Denna rapport gjordes för 6 timmar och 13 minuter sedan, klockan 22:40 UTC
Prognos gäller från 23 kl. 00 UTC till 24 kl. 06 UTC
Vind 9 kt från nord
Sikt 10 km eller mer
Brutna moln på en höjd av 2000 ft
Temporärt
från 23 kl. 01 UTC till 23 kl. 05 UTC
Sikt: 3500 m
fuktdis

TAF: LTBA 222240Z 2300/2406 35009KT 9999 BKN020 TEMPO 2301/2305 3500 BR

Aktuella väderrapporter och prognoser från 4000 flygplatser (METAR- och TAF-rapporter).

De tillgängliga stationerna syns som gula och röda prickar på kartan.

För musen över prickarna för att se namnen på stationerna.

Klicka sedan för att få väderrapporter och prognoser.

För att ändra kartan: Klicka på de gröna knapparna med ett svart kors på för att zooma in; den gröna knappen med ett streck på för att zooma ut; eller på de gröna pilarna för angränsande kartor.


METAR-TAF: